createdAt,value
2022-11-08T00:02:27.291Z,100262.09
2022-11-08T00:04:55.837Z,100256.16
2022-11-08T00:07:41.360Z,100252.63
2022-11-08T00:10:27.491Z,100249.00
2022-11-08T00:13:12.648Z,100251.34
2022-11-08T00:15:41.841Z,100245.44
2022-11-08T00:18:18.806Z,100250.84
2022-11-08T00:20:46.894Z,100251.59
2022-11-08T00:23:14.509Z,100240.38
2022-11-08T00:25:42.220Z,100242.88
2022-11-08T00:28:09.972Z,100242.88
2022-11-08T00:30:37.974Z,100235.19
2022-11-08T00:33:07.436Z,100242.03
2022-11-08T00:35:35.062Z,100249.91
2022-11-08T00:38:02.890Z,100248.34
2022-11-08T00:40:30.566Z,100240.59
2022-11-08T00:42:58.230Z,100242.47
2022-11-08T00:45:25.870Z,100243.50
2022-11-08T00:47:53.546Z,100244.47
2022-11-08T00:50:22.565Z,100237.28
2022-11-08T00:52:50.181Z,100236.50
2022-11-08T00:55:17.889Z,100227.78
2022-11-08T00:58:01.103Z,100226.00
2022-11-08T01:00:29.122Z,100231.19
2022-11-08T01:03:10.731Z,100227.97
2022-11-08T01:05:39.740Z,100225.91
2022-11-08T01:08:07.430Z,100235.91
2022-11-08T01:10:35.255Z,100226.78
2022-11-08T01:13:03.222Z,100227.03
2022-11-08T01:15:35.522Z,100224.69
2022-11-08T01:18:03.627Z,100226.69
2022-11-08T01:20:31.509Z,100220.84
2022-11-08T01:23:00.840Z,100219.34
2022-11-08T01:25:28.885Z,100221.25
2022-11-08T01:27:56.561Z,100214.44
2022-11-08T01:30:24.278Z,100207.72
2022-11-08T01:32:51.910Z,100201.69
2022-11-08T01:35:19.595Z,100199.91
2022-11-08T01:37:47.233Z,100199.13
2022-11-08T01:40:16.362Z,100196.69
2022-11-08T01:42:44.126Z,100194.09
2022-11-08T01:45:13.510Z,100184.38
2022-11-08T01:47:41.199Z,100188.53
2022-11-08T01:50:15.238Z,100181.84
2022-11-08T01:52:47.129Z,100173.38
2022-11-08T01:55:20.761Z,100184.44
2022-11-08T01:57:52.262Z,100175.03
2022-11-08T02:00:20.878Z,100176.84
2022-11-08T02:02:55.059Z,100160.63
2022-11-08T02:05:26.277Z,100167.53
2022-11-08T02:07:57.854Z,100160.75
2022-11-08T02:10:32.452Z,100157.19
2022-11-08T02:13:04.787Z,100160.47
2022-11-08T02:15:33.142Z,100159.50
2022-11-08T02:18:01.173Z,100156.25
2022-11-08T02:20:29.377Z,100156.06
2022-11-08T02:23:02.963Z,100156.16
2022-11-08T02:25:32.469Z,100155.41
2022-11-08T02:28:00.156Z,100147.50
2022-11-08T02:30:33.647Z,100151.59
2022-11-08T02:33:01.582Z,100153.16
2022-11-08T02:35:29.491Z,100147.69
2022-11-08T02:37:57.266Z,100149.44
2022-11-08T02:40:24.922Z,100153.06
2022-11-08T02:42:54.123Z,100140.28
2022-11-08T02:45:21.817Z,100145.50
2022-11-08T02:47:49.439Z,100137.69
2022-11-08T02:50:17.200Z,100137.47
2022-11-08T02:52:44.815Z,100136.84
2022-11-08T02:55:12.440Z,100129.13
2022-11-08T02:57:40.095Z,100120.56
2022-11-08T03:00:11.082Z,100131.16
2022-11-08T03:02:38.838Z,100139.13
2022-11-08T03:05:07.256Z,100130.66
2022-11-08T03:07:34.975Z,100125.69
2022-11-08T03:10:02.648Z,100131.09
2022-11-08T03:12:30.302Z,100120.56
2022-11-08T03:14:58.137Z,100119.72
2022-11-08T03:17:27.165Z,100122.19
2022-11-08T03:19:55.101Z,100124.75
2022-11-08T03:22:22.728Z,100120.03
2022-11-08T03:24:50.532Z,100121.88
2022-11-08T03:27:19.180Z,100126.16
2022-11-08T03:29:47.046Z,100126.31
2022-11-08T03:32:15.462Z,100116.28
2022-11-08T03:34:44.943Z,100115.44
2022-11-08T03:37:12.917Z,100115.44
2022-11-08T03:39:40.627Z,100111.97
2022-11-08T03:42:08.953Z,100113.53
2022-11-08T03:44:36.661Z,100108.28
2022-11-08T03:47:04.297Z,100099.63
2022-11-08T03:49:31.904Z,100091.69
2022-11-08T03:52:00.893Z,100098.03
2022-11-08T03:54:28.568Z,100102.53
2022-11-08T03:56:56.235Z,100098.44
2022-11-08T03:59:24.075Z,100083.75
2022-11-08T04:01:51.820Z,100089.00
2022-11-08T04:04:19.781Z,100090.72
2022-11-08T04:06:47.481Z,100088.94
2022-11-08T04:09:20.551Z,100094.94
2022-11-08T04:12:07.123Z,100093.53
2022-11-08T04:14:52.892Z,100100.78
2022-11-08T04:17:40.568Z,100092.81
2022-11-08T04:20:27.637Z,100091.16
2022-11-08T04:22:55.317Z,100084.38
2022-11-08T04:25:24.329Z,100081.94
2022-11-08T04:27:52.176Z,100079.31
2022-11-08T04:30:20.099Z,100080.16
2022-11-08T04:32:47.793Z,100078.56
2022-11-08T04:35:15.528Z,100075.88
2022-11-08T04:37:43.291Z,100083.16
2022-11-08T04:40:12.622Z,100078.78
2022-11-08T04:42:44.693Z,100085.03
2022-11-08T04:45:12.353Z,100080.72
2022-11-08T04:47:44.389Z,100083.34
2022-11-08T04:50:15.492Z,100091.09
2022-11-08T04:52:43.468Z,100082.56
2022-11-08T04:55:11.539Z,100073.94
2022-11-08T04:57:39.199Z,100077.53
2022-11-08T05:00:09.589Z,100071.53
2022-11-08T05:02:37.372Z,100060.91
2022-11-08T05:05:06.397Z,100067.22
2022-11-08T05:07:34.212Z,100063.59
2022-11-08T05:10:02.803Z,100060.16
2022-11-08T05:12:30.701Z,100061.28
2022-11-08T05:14:58.369Z,100070.94
2022-11-08T05:17:27.673Z,100071.06
2022-11-08T05:20:12.751Z,100065.28
2022-11-08T05:22:54.342Z,100062.13
2022-11-08T05:25:21.978Z,100060.09
2022-11-08T05:27:49.595Z,100064.84
2022-11-08T05:30:17.418Z,100070.88
2022-11-08T05:32:46.554Z,100066.53
2022-11-08T05:35:14.280Z,100067.53
2022-11-08T05:37:42.940Z,100051.88
2022-11-08T05:40:11.793Z,100058.16
2022-11-08T05:42:39.630Z,100054.91
2022-11-08T05:45:09.497Z,100044.06
2022-11-08T05:47:37.543Z,100039.03
2022-11-08T05:50:07.450Z,100041.63
2022-11-08T05:52:35.153Z,100033.56
2022-11-08T05:55:02.766Z,100033.44
2022-11-08T05:57:30.653Z,100028.53
2022-11-08T05:59:58.354Z,100027.44
2022-11-08T06:02:26.238Z,100034.53
2022-11-08T06:04:54.286Z,100020.41
2022-11-08T06:07:23.592Z,100027.16
2022-11-08T06:09:51.693Z,100025.38
2022-11-08T06:12:20.432Z,100027.97
2022-11-08T06:14:48.181Z,100021.00
2022-11-08T06:17:16.152Z,100025.16
2022-11-08T06:19:44.516Z,100027.78
2022-11-08T06:22:12.277Z,100032.28
2022-11-08T06:24:41.989Z,100033.56
2022-11-08T06:27:09.682Z,100051.06
2022-11-08T06:29:37.465Z,100051.63
2022-11-08T06:32:05.533Z,100046.09
2022-11-08T06:34:33.146Z,100044.59
2022-11-08T06:37:01.042Z,100036.56
2022-11-08T06:39:28.769Z,100046.00
2022-11-08T06:41:58.193Z,100045.16
2022-11-08T06:44:27.223Z,100048.47
2022-11-08T06:46:56.159Z,100051.31
2022-11-08T06:49:24.452Z,100057.16
2022-11-08T06:51:52.824Z,100056.25
2022-11-08T06:54:24.452Z,100043.09
2022-11-08T06:56:55.565Z,100046.34
2022-11-08T06:59:24.560Z,100044.41
2022-11-08T07:01:52.494Z,100050.38
2022-11-08T07:04:20.272Z,100049.44
2022-11-08T07:06:47.912Z,100052.72
2022-11-08T07:09:15.812Z,100051.72
2022-11-08T07:11:43.569Z,100047.34
2022-11-08T07:14:11.401Z,100049.56
2022-11-08T07:16:40.459Z,100045.22
2022-11-08T07:19:08.170Z,100034.06
2022-11-08T07:21:35.850Z,100040.81
2022-11-08T07:24:03.587Z,100045.91
2022-11-08T07:26:31.340Z,100045.53
2022-11-08T07:28:59.145Z,100042.13
2022-11-08T07:31:27.706Z,100048.22
2022-11-08T07:33:56.780Z,100066.25
2022-11-08T07:36:24.382Z,100063.50
2022-11-08T07:38:53.517Z,100064.19
2022-11-08T07:41:21.170Z,100062.31
2022-11-08T07:43:49.153Z,100070.72
2022-11-08T07:46:18.283Z,100074.03
2022-11-08T07:48:45.893Z,100079.06
2022-11-08T07:51:14.958Z,100075.38
2022-11-08T07:53:44.659Z,100075.97
2022-11-08T07:56:12.391Z,100079.25
2022-11-08T07:58:40.029Z,100081.75
2022-11-08T08:01:08.064Z,100079.94
2022-11-08T08:03:36.230Z,100081.56
2022-11-08T08:06:04.405Z,100075.44
2022-11-08T08:08:33.493Z,100080.31
2022-11-08T08:11:02.063Z,100081.03
2022-11-08T08:13:30.132Z,100076.47
2022-11-08T08:16:02.183Z,100070.03
2022-11-08T08:18:34.577Z,100079.25
2022-11-08T08:21:02.331Z,100093.59
2022-11-08T08:23:30.225Z,100092.34
2022-11-08T08:26:02.545Z,100098.00
2022-11-08T08:28:31.998Z,100092.28
2022-11-08T08:30:59.923Z,100089.50
2022-11-08T08:33:29.238Z,100089.34
2022-11-08T08:36:02.525Z,100086.38
2022-11-08T08:38:31.144Z,100091.41
2022-11-08T08:41:01.821Z,100084.31
2022-11-08T08:43:32.227Z,100077.97
2022-11-08T08:46:01.207Z,100082.13
2022-11-08T08:48:28.940Z,100083.63
2022-11-08T08:50:57.337Z,100081.34
2022-11-08T08:53:25.489Z,100085.06
2022-11-08T08:55:53.578Z,100074.69
2022-11-08T08:58:23.435Z,100079.81
2022-11-08T09:03:38.909Z,100073.38
2022-11-08T09:06:06.851Z,100072.69
2022-11-08T09:08:34.763Z,100079.53
2022-11-08T09:11:03.158Z,100082.34
2022-11-08T09:13:32.755Z,100089.03
2022-11-08T09:16:02.804Z,100078.91
2022-11-08T09:18:31.090Z,100073.94
2022-11-08T09:20:59.630Z,100085.03
2022-11-08T09:23:27.849Z,100075.47
2022-11-08T09:26:00.404Z,100071.81
2022-11-08T09:28:31.536Z,100074.69
2022-11-08T09:31:09.824Z,100069.63
2022-11-08T09:33:38.988Z,100053.16
2022-11-08T09:36:08.442Z,100060.94
2022-11-08T09:38:36.160Z,100058.81
2022-11-08T09:41:17.556Z,100069.47
2022-11-08T09:44:00.863Z,100061.66
2022-11-08T09:46:38.850Z,100059.44
2022-11-08T09:49:10.998Z,100063.75
2022-11-08T09:51:39.971Z,100064.31
2022-11-08T09:54:18.432Z,100069.69
2022-11-08T09:56:48.333Z,100069.25
2022-11-08T09:59:31.193Z,100067.88
2022-11-08T10:02:00.367Z,100069.69
2022-11-08T10:04:31.225Z,100066.47
2022-11-08T10:07:16.108Z,100064.09
2022-11-08T10:10:06.842Z,100066.25
2022-11-08T10:12:41.514Z,100058.38
2022-11-08T10:15:20.771Z,100053.56
2022-11-08T10:18:20.082Z,100052.91
2022-11-08T10:21:00.221Z,100042.41
2022-11-08T10:23:37.705Z,100051.13
2022-11-08T10:26:10.389Z,100044.72
2022-11-08T10:28:43.381Z,100051.13
2022-11-08T10:31:14.014Z,100049.56
2022-11-08T10:33:49.246Z,100040.53
2022-11-08T10:36:23.321Z,100049.31
2022-11-08T10:38:59.740Z,100050.66
2022-11-08T10:41:34.424Z,100051.81
2022-11-08T10:44:06.266Z,100048.75
2022-11-08T10:46:42.328Z,100048.06
2022-11-08T10:49:16.634Z,100047.13
2022-11-08T10:51:45.200Z,100048.22
2022-11-08T10:54:43.835Z,100045.44
2022-11-08T10:57:13.273Z,100033.13
2022-11-08T10:59:41.435Z,100035.03
2022-11-08T11:02:21.399Z,100033.84
2022-11-08T11:04:50.965Z,100036.56
2022-11-08T11:07:32.879Z,100016.31
2022-11-08T11:10:19.555Z,100011.00
2022-11-08T11:12:50.859Z,100009.59
2022-11-08T11:15:18.850Z,100010.34
2022-11-08T11:17:47.835Z,100002.31
2022-11-08T11:20:24.499Z,100003.72
2022-11-08T11:22:53.644Z,100000.09
2022-11-08T11:25:23.439Z,99999.03
2022-11-08T11:27:55.532Z,99993.81
2022-11-08T11:30:28.323Z,99993.19
2022-11-08T11:33:05.711Z,99988.78
2022-11-08T11:35:42.227Z,99993.53
2022-11-08T11:38:20.830Z,99990.66
2022-11-08T11:40:51.432Z,99988.13
2022-11-08T11:43:26.954Z,99984.84
2022-11-08T11:46:03.640Z,99990.66
2022-11-08T11:48:34.630Z,99980.84
2022-11-08T11:51:03.920Z,99983.75
2022-11-08T11:53:38.733Z,99985.81
2022-11-08T11:56:41.534Z,99988.50
2022-11-08T11:59:25.802Z,99985.41
2022-11-08T12:02:15.879Z,99985.72
2022-11-08T12:05:03.059Z,99982.25
2022-11-08T12:07:33.812Z,99981.13
2022-11-08T12:10:16.364Z,99978.56
2022-11-08T12:12:55.915Z,99970.88
2022-11-08T12:15:31.069Z,99958.81
2022-11-08T12:18:42.025Z,99961.56
2022-11-08T12:21:14.727Z,99962.25
2022-11-08T12:23:58.619Z,99960.47
2022-11-08T12:26:33.502Z,99957.78
2022-11-08T12:29:11.793Z,99963.47
2022-11-08T12:31:49.771Z,99947.75
2022-11-08T12:34:24.423Z,99949.69
2022-11-08T12:37:03.428Z,99949.13
2022-11-08T12:39:45.066Z,99941.06
2022-11-08T12:42:49.237Z,99947.34
2022-11-08T12:45:57.292Z,99949.50
2022-11-08T12:48:40.280Z,99943.97
2022-11-08T12:51:15.742Z,99945.66
2022-11-08T12:54:02.920Z,99936.53
2022-11-08T12:56:40.642Z,99934.97
2022-11-08T12:59:19.513Z,99931.84
2022-11-08T13:01:47.912Z,99923.63
2022-11-08T13:04:29.455Z,99926.53
2022-11-08T13:07:00.654Z,99919.81
2022-11-08T13:09:40.993Z,99929.41
2022-11-08T13:12:26.256Z,99924.91
2022-11-08T13:14:54.421Z,99924.91
2022-11-08T13:17:26.197Z,99921.00
2022-11-08T13:20:10.723Z,99921.75
2022-11-08T13:22:44.009Z,99928.66
2022-11-08T13:25:42.532Z,99924.72
2022-11-08T13:28:50.211Z,99928.47
2022-11-08T13:31:31.937Z,99921.19
2022-11-08T13:34:37.693Z,99923.03
2022-11-08T13:37:24.455Z,99917.81
2022-11-08T13:40:28.129Z,99908.94
2022-11-08T13:43:20.936Z,99907.25
2022-11-08T13:45:49.446Z,99906.22
2022-11-08T13:48:36.897Z,99908.84
2022-11-08T13:51:23.961Z,99910.53
2022-11-08T13:53:54.353Z,99902.47
2022-11-08T13:56:45.058Z,99897.44
2022-11-08T13:59:52.168Z,99896.69
2022-11-08T14:02:36.690Z,99900.41
2022-11-08T14:05:32.705Z,99891.16
2022-11-08T14:08:23.811Z,99882.13
2022-11-08T14:11:37.177Z,99883.28
2022-11-08T14:14:46.451Z,99872.41
2022-11-08T14:17:44.695Z,99887.66
2022-11-08T14:20:22.913Z,99879.31
2022-11-08T14:22:52.426Z,99884.84
2022-11-08T14:25:27.311Z,99872.91
2022-11-08T14:27:55.070Z,99865.72
2022-11-08T14:30:24.566Z,99867.25
2022-11-08T14:33:07.042Z,99861.50
2022-11-08T14:35:35.928Z,99868.50
2022-11-08T14:38:12.490Z,99865.69
2022-11-08T14:40:40.344Z,99867.09
2022-11-08T14:43:12.860Z,99871.00
2022-11-08T14:45:44.477Z,99865.56
2022-11-08T14:48:19.663Z,99869.78
2022-11-08T14:50:47.892Z,99875.88
2022-11-08T14:53:26.781Z,99866.84
2022-11-08T14:56:03.983Z,99870.38
2022-11-08T14:58:31.858Z,99866.28
2022-11-08T15:01:02.617Z,99865.66
2022-11-08T15:03:34.036Z,99854.75
2022-11-08T15:06:03.299Z,99847.09
2022-11-08T15:08:35.027Z,99849.94
2022-11-08T15:11:05.327Z,99848.25
2022-11-08T15:13:41.050Z,99851.41
2022-11-08T15:16:10.362Z,99846.38
2022-11-08T15:18:40.169Z,99860.38
2022-11-08T15:21:22.072Z,99858.81
2022-11-08T15:23:54.163Z,99857.97
2022-11-08T15:26:24.676Z,99856.06
2022-11-08T15:29:01.059Z,99854.31
2022-11-08T15:31:31.484Z,99848.06
2022-11-08T15:33:59.686Z,99846.59
2022-11-08T15:36:33.288Z,99844.34
2022-11-08T15:39:05.005Z,99854.41
2022-11-08T15:41:36.810Z,99843.56
2022-11-08T15:44:16.600Z,99846.03
2022-11-08T15:46:44.974Z,99850.69
2022-11-08T15:49:21.155Z,99856.09
2022-11-08T15:51:49.813Z,99856.94
2022-11-08T15:54:19.872Z,99856.47
2022-11-08T15:56:49.422Z,99851.88
2022-11-08T15:59:21.459Z,99857.69
2022-11-08T16:01:55.186Z,99849.63
2022-11-08T16:04:23.496Z,99850.41
2022-11-08T16:06:51.503Z,99853.31
2022-11-08T16:09:21.170Z,99850.09
2022-11-08T16:11:49.952Z,99843.56
2022-11-08T16:14:20.698Z,99848.31
2022-11-08T16:16:48.685Z,99848.50
2022-11-08T16:19:21.932Z,99848.78
2022-11-08T16:21:50.472Z,99848.97
2022-11-08T16:24:18.780Z,99845.50
2022-11-08T16:26:48.231Z,99852.88
2022-11-08T16:29:20.670Z,99855.16
2022-11-08T16:31:48.956Z,99857.66
2022-11-08T16:34:16.775Z,99856.66
2022-11-08T16:36:46.417Z,99866.25
2022-11-08T16:39:16.776Z,99861.03
2022-11-08T16:41:45.367Z,99857.84
2022-11-08T16:44:14.740Z,99858.03
2022-11-08T16:46:42.982Z,99857.38
2022-11-08T16:49:21.403Z,99852.94
2022-11-08T16:51:49.645Z,99852.75
2022-11-08T16:54:20.750Z,99850.41
2022-11-08T16:56:48.532Z,99854.97
2022-11-08T16:59:17.679Z,99862.03
2022-11-08T17:01:46.120Z,99866.97
2022-11-08T17:04:13.847Z,99869.78
2022-11-08T17:06:41.837Z,99862.53
2022-11-08T17:09:09.737Z,99857.97
2022-11-08T17:11:39.961Z,99870.75
2022-11-08T17:14:07.742Z,99861.03
2022-11-08T17:16:37.534Z,99873.25
2022-11-08T17:19:05.872Z,99874.94
2022-11-08T17:21:49.594Z,99875.19
2022-11-08T17:24:21.853Z,99868.47
2022-11-08T17:26:50.212Z,99871.63
2022-11-08T17:29:18.071Z,99878.06
2022-11-08T17:31:47.458Z,99882.16
2022-11-08T17:34:15.107Z,99878.91
2022-11-08T17:36:43.070Z,99880.06
2022-11-08T17:39:13.934Z,99880.44
2022-11-08T17:41:41.626Z,99874.47
2022-11-08T17:44:09.228Z,99871.09
2022-11-08T17:46:36.990Z,99868.66
2022-11-08T17:49:05.955Z,99867.66
2022-11-08T17:51:33.828Z,99868.22
2022-11-08T17:54:01.780Z,99885.81
2022-11-08T17:56:29.523Z,99893.16
2022-11-08T17:58:57.218Z,99892.41
2022-11-08T18:01:25.096Z,99893.81
2022-11-08T18:03:53.057Z,99884.16
2022-11-08T18:06:22.462Z,99884.22
2022-11-08T18:08:50.222Z,99888.69
2022-11-08T18:11:18.573Z,99897.44
2022-11-08T18:13:46.350Z,99889.25
2022-11-08T18:16:16.219Z,99895.41
2022-11-08T18:18:46.052Z,99891.28
2022-11-08T18:21:15.039Z,99890.44
2022-11-08T18:23:45.527Z,99881.25
2022-11-08T18:26:14.337Z,99885.44
2022-11-08T18:28:44.016Z,99876.56
2022-11-08T18:31:13.962Z,99885.81
2022-11-08T18:33:42.547Z,99880.34
2022-11-08T18:36:12.285Z,99881.00
2022-11-08T18:38:41.986Z,99881.00
2022-11-08T18:41:12.392Z,99875.69
2022-11-08T18:43:40.332Z,99877.53
2022-11-08T18:46:11.485Z,99872.25
2022-11-08T18:48:39.621Z,99878.31
2022-11-08T18:51:09.124Z,99877.47
2022-11-08T18:53:37.543Z,99876.88
2022-11-08T18:56:06.462Z,99880.41
2022-11-08T18:58:35.921Z,99882.28
2022-11-08T19:01:04.906Z,99877.16
2022-11-08T19:03:33.293Z,99877.16
2022-11-08T19:06:01.788Z,99875.38
2022-11-08T19:08:30.758Z,99884.25
2022-11-08T19:11:00.522Z,99878.25
2022-11-08T19:13:30.825Z,99877.59
2022-11-08T19:16:01.726Z,99884.50
2022-11-08T19:18:30.246Z,99882.91
2022-11-08T19:20:58.820Z,99884.00
2022-11-08T19:23:27.389Z,99884.59
2022-11-08T19:25:57.161Z,99881.91
2022-11-08T19:28:29.041Z,99888.03
2022-11-08T19:31:01.507Z,99890.91
2022-11-08T19:33:31.609Z,99892.19
2022-11-08T19:36:03.708Z,99880.25
2022-11-08T19:38:32.778Z,99876.16
2022-11-08T19:41:02.881Z,99880.13
2022-11-08T19:43:31.134Z,99881.28
2022-11-08T19:46:05.088Z,99875.00
2022-11-08T19:48:36.672Z,99861.31
2022-11-08T19:51:06.022Z,99866.09
2022-11-08T19:53:34.654Z,99861.41
2022-11-08T19:56:04.635Z,99853.84
2022-11-08T19:58:33.114Z,99855.19
2022-11-08T20:01:08.002Z,99856.03
2022-11-08T20:03:36.092Z,99848.31
2022-11-08T20:06:04.504Z,99853.44
2022-11-08T20:08:32.430Z,99859.31
2022-11-08T20:11:00.587Z,99873.19
2022-11-08T20:13:28.528Z,99875.44
2022-11-08T20:15:56.485Z,99877.31
2022-11-08T20:18:25.600Z,99874.78
2022-11-08T20:20:53.305Z,99872.91
2022-11-08T20:23:21.083Z,99882.59
2022-11-08T20:25:48.938Z,99884.28
2022-11-08T20:28:17.618Z,99885.94
2022-11-08T20:30:45.571Z,99890.34
2022-11-08T20:33:13.310Z,99893.19
2022-11-08T20:35:42.610Z,99888.31
2022-11-08T20:38:10.559Z,99890.06
2022-11-08T20:40:39.047Z,99889.91
2022-11-08T20:43:07.476Z,99888.72
2022-11-08T20:45:35.465Z,99897.31
2022-11-08T20:48:03.524Z,99906.06
2022-11-08T20:50:31.301Z,99910.09
2022-11-08T20:53:00.732Z,99909.75
2022-11-08T20:55:29.625Z,99922.72
2022-11-08T20:57:57.614Z,99916.53
2022-11-08T21:00:52.000Z,99920.09
2022-11-08T21:03:18.676Z,99916.81
2022-11-08T21:05:51.309Z,99921.69
2022-11-08T21:11:11.389Z,99921.25
2022-11-08T21:13:41.364Z,99915.59
2022-11-08T21:16:28.716Z,99915.75
2022-11-08T21:18:57.527Z,99908.00
2022-11-08T21:21:25.605Z,99906.19
2022-11-08T21:23:55.767Z,99906.94
2022-11-08T21:26:24.252Z,99907.69
2022-11-08T21:28:52.266Z,99906.19
2022-11-08T21:31:20.292Z,99907.78
2022-11-08T21:33:48.250Z,99905.09
2022-11-08T21:36:17.298Z,99909.28
2022-11-08T21:38:45.576Z,99894.28
2022-11-08T21:41:15.335Z,99894.97
2022-11-08T21:43:45.193Z,99889.81
2022-11-08T21:46:15.492Z,99900.00
2022-11-08T21:48:43.200Z,99885.19
2022-11-08T21:51:11.119Z,99890.25
2022-11-08T21:53:46.986Z,99889.06
2022-11-08T21:56:18.706Z,99883.69
2022-11-08T21:58:46.449Z,99901.09
2022-11-08T22:01:14.326Z,99909.06
2022-11-08T22:03:42.021Z,99916.06
2022-11-08T22:06:09.853Z,99905.69
2022-11-08T22:08:37.661Z,99903.94
2022-11-08T22:11:05.813Z,99905.03
2022-11-08T22:13:35.032Z,99912.28
2022-11-08T22:16:03.085Z,99914.97
2022-11-08T22:18:58.278Z,99914.63
2022-11-08T22:21:37.092Z,99910.25
2022-11-08T22:24:04.984Z,99916.28
2022-11-08T22:26:32.698Z,99921.63
2022-11-08T22:29:03.168Z,99928.47
2022-11-08T22:31:31.038Z,99924.88
2022-11-08T22:33:59.004Z,99925.72
2022-11-08T22:36:27.642Z,99923.19
2022-11-08T22:38:55.496Z,99921.63
2022-11-08T22:41:24.339Z,99919.94
2022-11-08T22:43:52.750Z,99910.34
2022-11-08T22:46:21.867Z,99907.91
2022-11-08T22:48:49.695Z,99904.34
2022-11-08T22:51:18.088Z,99894.44
2022-11-08T22:53:46.300Z,99897.72
2022-11-08T22:56:14.119Z,99897.72
2022-11-08T22:58:42.107Z,99894.28
2022-11-08T23:01:12.949Z,99892.59
2022-11-08T23:03:42.026Z,99889.97
2022-11-08T23:06:11.118Z,99886.88
2022-11-08T23:08:39.104Z,99881.66
2022-11-08T23:11:25.135Z,99889.56
2022-11-08T23:14:10.174Z,99889.56
2022-11-08T23:16:41.072Z,99884.34
2022-11-08T23:19:30.604Z,99891.25
2022-11-08T23:22:15.999Z,99884.47
2022-11-08T23:24:44.684Z,99894.94
2022-11-08T23:27:31.848Z,99892.41
2022-11-08T23:30:17.265Z,99875.94
2022-11-08T23:32:46.484Z,99873.69
2022-11-08T23:35:16.969Z,99870.47
2022-11-08T23:37:45.344Z,99867.03
2022-11-08T23:40:32.507Z,99869.56
2022-11-08T23:43:22.538Z,99880.25
2022-11-08T23:45:50.817Z,99879.50
2022-11-08T23:48:18.546Z,99883.75
2022-11-08T23:50:52.609Z,99894.09
2022-11-08T23:53:20.964Z,99889.41
2022-11-08T23:55:49.012Z,99897.97
2022-11-08T23:58:17.825Z,99888.41
